Flight Track Log - Related Links

Times and Time Zones

All times are in EDT time to prevent confusion due to time zone crossing. See the VH-JJB flight status page for this flight to view local times or setup timezone preferences in your user account.

Time Position Orientation Groundspeed Altitude Reporting Facility
EDT Latitude Longitude Course Direction KTS MPH feet Rate Location/Type
Sat 11:12:57 PM -27.5350 153.0136 North 81 93 700  Level Aus ATC (RADAR)
Sat 11:13:27 PM -27.5229 153.0146 North 87 100 800 185 Climbing Aus ATC (RADAR)
Sat 11:14:02 PM -27.5093 153.0177 11° North 87 100 900  Climbing Aus ATC (RADAR)
Sat 11:14:47 PM -27.4930 153.0243 20° North 84 97 800 -75 Descending Aus ATC (RADAR)
Sat 11:15:22 PM -27.4801 153.0304 23° Northeast 88 101 800  Level Aus ATC (RADAR)
Sat 11:15:52 PM -27.4674 153.0349 17° North 93 107 800 92 Level Aus ATC (RADAR)
Sat 11:16:27 PM -27.4582 153.0246 315° West 108 124 900 171 Climbing Aus ATC (RADAR)
Sat 11:17:02 PM -27.4644 153.0059 249° West 107 123 1,000 -60 Climbing Aus ATC (RADAR)
Sat 11:18:07 PM -27.4916 153.0255 147° Southeast 100 115 800  Descending Aus ATC (RADAR)
Sat 11:18:32 PM -27.5046 153.0233 188° South 108 124 1,000 100 Climbing Aus ATC (RADAR)
Sat 11:19:07 PM -27.5219 153.0206 188° South 109 125 900 -141 Descending Aus ATC (RADAR)
Sat 11:19:57 PM -27.5461 153.0161 189° South 106 122 800 -282 Descending Aus ATC (RADAR)
Sat 11:20:32 PM -27.5625 153.0089 201° Southwest 106 122 500 -720 Descending Aus ATC (RADAR)
Sat 11:20:47 PM -27.5683 153.0050 211° Southwest 103 119 200 Descending Aus ATC (RADAR)
Sun 12:16:27 AM -27.5185 153.0207 230° Southwest 1,000 Climbing Aus ATC (Calculated)
Sun 12:17:01 AM -27.5227 153.0151 211° Southwest 85 98 700 -152 Descending Aus ATC (RADAR)
Sun 12:17:46 AM -27.5049 153.0179 North 85 98 800 171 Climbing Aus ATC (RADAR)
Sun 12:18:11 AM -27.4950 153.0220 20° North 89 102 900  Climbing Aus ATC (RADAR)
Sun 12:18:46 AM -27.4814 153.0295 26° Northeast 93 107 800 -52 Descending Aus ATC (RADAR)
Sun 12:20:06 AM -27.4611 153.0165 331° Northwest 110 127 800  Level Aus ATC (RADAR)
Sun 12:20:21 AM -27.4639 153.0086 249° West 109 125 800  Level Aus ATC (RADAR)
Sun 12:20:56 AM -27.4788 153.0191 148° Southeast 111 128 800  Level Aus ATC (RADAR)
Sun 12:21:41 AM -27.5001 153.0164 186° South 105 121 800 150 Level Aus ATC (RADAR)
Sun 12:22:16 AM -27.5136 153.0045 218° Southwest 103 119 1,000 71 Climbing Aus ATC (RADAR)
Sun 12:23:06 AM -27.5372 153.0098 169° South 101 116 900 -240 Descending Aus ATC (RADAR)
Sun 12:23:31 AM -27.5488 153.0108 176° South 99 114 700 -568 Descending Aus ATC (RADAR)
Sun 12:24:20 AM -27.5689 153.0102 182° South 87 100 200 -612 Descending Aus ATC (RADAR)

Login

Don't have an account? Register now (free) for customized features, flight alerts, and more!